KMOX/MOX METAR and TAF weather

Enter ICAO airport designator
Station Type Date Time Source
KMOX METAR 2022/01/19 20:15 UTC NOAA

KMOX 192015Z AUTO 32016G21KT 10SM CLR M19/M25 A3053 RMK AO2


Station Type Date Time Source
KMOX Decoded METAR 2022/01/19 20:15 UTC NOAA

Morris, Morris Municipal Airport, MN, United States (KMOX) 45-34N 095-58W
Jan 19, 2022 - 03:15 PM EST / 2022.01.19 2015 UTC
Wind: from the NW (320 degrees) at 18 MPH (16 KT) gusting to 24 MPH (21 KT):0
Visibility: 10 mile(s):0
Sky conditions: clear
Temperature: -2 F (-19 C)
Windchill: -23 F (-31 C):2
Dew Point: -13 F (-25 C)
Relative Humidity: 59%
Pressure (altimeter): 30.53 in. Hg (1033 hPa)
ob: KMOX 192015Z AUTO 32016G21KT 10SM CLR M19/M25 A3053 RMK AO2
cycle: 20

Station Type Date Time Source
KMOX TAF UTC NOAA

Error!

Example: see airport list